Terminal Aerodrome Forecast
Issued by NWS Mobile, AL

Home | Current Version | Previous Version | Text Only | Print | Product List | Glossary On
Versions: 1 2 3 4 5 6 7 8 9 10 11 12 13 14
000
FTUS44 KMOB 251739
TAFPNS
TAF
KPNS 251739Z 2518/2618 16007KT P6SM FEW045
     FM260900 18003KT 5SM BR SCT250
     FM261400 17010KT P6SM SCT050 BKN250=

USA.gov is the U.S. government's official web portal to all federal, state and local government web resources and services.